Time;durP1;ratioP1;P1;durP2;ratioP2;P2;SDS_P1;SDS_P2;PMS_P1;PMS_P2;Temp;Humidity;BMP_temperature;BMP_pressure;BME280_temperature;BME280_humidity;BME280_pressure;Samples;Min_cycle;Max_cycle;Signal;HPM_P1;HPM_P2
2023/08/14 00:01:04;;;;;;;4.90;3.00;;;16.80;99.90;;;;;;5097957;28;20636;-89
2023/08/14 00:03:29;;;;;;;11.15;3.45;;;16.70;99.90;;;;;;5097670;28;20179;-89
2023/08/14 00:05:55;;;;;;;9.65;3.17;;;16.60;99.90;;;;;;5097618;28;20188;-89
2023/08/14 00:08:21;;;;;;;4.80;3.30;;;16.60;99.90;;;;;;5097714;28;20266;-89
2023/08/14 00:10:46;;;;;;;5.68;3.22;;;16.60;99.90;;;;;;5097579;28;20173;-89
2023/08/14 00:13:12;;;;;;;7.15;3.00;;;16.60;99.90;;;;;;5097347;28;20194;-89
2023/08/14 00:15:38;;;;;;;5.32;2.90;;;16.60;99.90;;;;;;5097160;28;20203;-89
2023/08/14 00:18:05;;;;;;;4.90;3.00;;;16.60;99.90;;;;;;5097832;28;20226;-89
2023/08/14 00:20:31;;;;;;;9.23;3.35;;;16.50;99.90;;;;;;5097259;28;20180;-89
2023/08/14 00:22:57;;;;;;;5.00;3.00;;;16.50;99.90;;;;;;5097912;28;20179;-89
2023/08/14 00:25:23;;;;;;;6.88;3.17;;;16.50;99.90;;;;;;5097630;28;20176;-89
2023/08/14 00:27:49;;;;;;;3.88;2.65;;;16.50;99.90;;;;;;5097431;28;20179;-88
2023/08/14 00:30:14;;;;;;;6.20;3.20;;;16.50;99.90;;;;;;5097654;28;20180;-88
2023/08/14 00:32:40;;;;;;;5.50;2.60;;;16.50;99.90;;;;;;5097176;28;20209;-90
2023/08/14 00:35:06;;;;;;;3.60;3.15;;;16.60;99.90;;;;;;5097447;28;20180;-88
2023/08/14 00:37:46;;;;;;;7.22;3.30;;;16.50;99.90;;;;;;5097474;28;20207;-89
2023/08/14 00:40:13;;;;;;;6.80;3.15;;;16.40;99.90;;;;;;5097587;28;20270;-88
2023/08/14 00:42:42;;;;;;;8.30;3.03;;;16.50;99.90;;;;;;5097084;28;20263;-89
2023/08/14 00:45:08;;;;;;;6.15;3.42;;;16.50;99.90;;;;;;5096934;28;20198;-88
2023/08/14 00:47:38;;;;;;;3.75;3.20;;;16.50;99.90;;;;;;5096662;28;20269;-89
2023/08/14 00:50:05;;;;;;;6.70;3.53;;;16.50;99.90;;;;;;5097481;28;20274;-89
2023/08/14 00:52:32;;;;;;;6.45;3.20;;;16.30;99.90;;;;;;5096759;28;20180;-88
2023/08/14 00:55:01;;;;;;;5.28;3.00;;;16.30;99.90;;;;;;5096362;28;20279;-89
2023/08/14 00:57:29;;;;;;;4.70;2.80;;;16.30;99.90;;;;;;5096527;28;20214;-91
2023/08/14 00:59:55;;;;;;;6.93;2.85;;;16.30;99.90;;;;;;5097214;28;20175;-91
2023/08/14 01:18:19;;;;;;;5.15;2.80;;;16.40;99.90;;;;;;5086948;22;20288;-74
2023/08/14 01:42:40;;;;;;;;;;;;;;;;;;;;;
2023/08/14 01:49:09;;;;;;;7.32;3.10;;;16.10;99.90;;;;;;4915619;29;20225;-73
2023/08/14 01:58:21;;;;;;;3.85;3.35;;;16.00;99.90;;;;;;4934198;29;20222;-73
2023/08/14 02:28:51;;;;;;;6.82;3.35;;;15.80;99.90;;;;;;4899781;29;20195;-73
2023/08/14 03:09:20;;;;;;;4.50;3.40;;;15.80;99.90;;;;;;4918115;29;20596;-74
2023/08/14 03:19:19;;;;;;;3.35;3.05;;;15.90;99.90;;;;;;4917899;29;20237;-74
2023/08/14 03:39:25;;;;;;;6.82;3.08;;;16.10;99.90;;;;;;4917301;29;20777;-73
2023/08/14 04:11:35;;;;;;;;;;;;;;;;;;;;;
2023/08/14 04:15:04;;;;;;;4.80;3.33;;;16.00;99.90;;;;;;4993705;28;20180;-73
2023/08/14 04:25:16;;;;;;;3.88;3.08;;;16.20;99.90;;;;;;5012505;28;20252;-73
2023/08/14 04:32:21;;;;;;;7.00;3.70;;;16.40;99.90;;;;;;4973061;28;20183;-74
2023/08/14 04:42:09;;;;;;;5.90;3.53;;;16.50;99.90;;;;;;5034658;28;20246;-74
2023/08/14 04:48:52;;;;;;;;;;;;;;;;;;;;;
2023/08/14 05:47:53;;;;;;;4.15;3.50;;;17.00;99.90;;;;;;5418764;22;20226;-89
2023/08/14 05:50:21;;;;;;;4.45;3.85;;;17.10;99.90;;;;;;5048969;28;20264;-89
2023/08/14 05:52:47;;;;;;;7.35;4.13;;;17.20;99.90;;;;;;5032293;28;20179;-89
2023/08/14 05:55:13;;;;;;;3.88;3.45;;;17.40;99.90;;;;;;5032303;28;20556;-88
2023/08/14 05:57:38;;;;;;;5.82;3.70;;;17.60;99.90;;;;;;5032078;28;20214;-88
2023/08/14 06:00:05;;;;;;;5.45;3.33;;;17.70;99.90;;;;;;5033456;28;20178;-91
2023/08/14 06:02:30;;;;;;;6.10;3.53;;;17.80;99.90;;;;;;5033469;28;20261;-91
2023/08/14 06:04:56;;;;;;;6.90;3.70;;;17.80;99.90;;;;;;5032994;28;20641;-91
2023/08/14 06:07:22;;;;;;;9.27;4.20;;;17.80;99.90;;;;;;5032817;28;20293;-91
2023/08/14 06:09:47;;;;;;;5.90;4.07;;;17.90;99.90;;;;;;5032849;28;20174;-91
2023/08/14 06:12:13;;;;;;;6.38;3.60;;;18.00;99.90;;;;;;5032867;28;20183;-91
2023/08/14 06:14:38;;;;;;;8.18;3.45;;;18.10;99.90;;;;;;5033187;28;20190;-91
2023/08/14 06:17:04;;;;;;;6.18;3.33;;;18.20;99.90;;;;;;5032660;28;20301;-91
2023/08/14 06:19:31;;;;;;;5.40;3.67;;;18.40;99.90;;;;;;5032529;28;20183;-91
2023/08/14 06:21:57;;;;;;;5.30;3.63;;;18.60;99.90;;;;;;5032508;28;20182;-91
2023/08/14 06:24:23;;;;;;;4.70;3.42;;;18.80;99.90;;;;;;5033584;28;20175;-91
2023/08/14 06:26:48;;;;;;;7.70;4.10;;;18.90;99.90;;;;;;5032587;28;20198;-91
2023/08/14 06:29:14;;;;;;;5.35;3.95;;;19.10;99.90;;;;;;5032652;28;20233;-91
2023/08/14 06:31:40;;;;;;;7.55;3.80;;;19.20;99.90;;;;;;5033253;28;20221;-90
2023/08/14 06:34:05;;;;;;;4.20;3.60;;;19.40;99.90;;;;;;5032070;28;20186;-91
2023/08/14 06:36:31;;;;;;;3.90;3.60;;;19.60;99.90;;;;;;5031694;28;20618;-91
2023/08/14 06:38:56;;;;;;;7.35;3.75;;;19.80;99.90;;;;;;5031918;28;20179;-91
2023/08/14 06:41:22;;;;;;;4.88;3.70;;;19.90;99.90;;;;;;5032003;28;20233;-91
2023/08/14 06:43:48;;;;;;;4.15;3.38;;;20.00;99.90;;;;;;5032183;28;20183;-91
2023/08/14 06:46:14;;;;;;;8.48;3.97;;;20.10;99.90;;;;;;5032030;28;20195;-91
2023/08/14 06:48:39;;;;;;;7.28;3.80;;;20.30;99.90;;;;;;5032093;28;20190;-91
2023/08/14 06:51:05;;;;;;;5.50;3.83;;;20.30;99.90;;;;;;5032871;28;20187;-90
2023/08/14 06:53:31;;;;;;;3.97;3.67;;;20.40;99.90;;;;;;5031815;28;20179;-90
2023/08/14 06:55:57;;;;;;;6.22;3.50;;;20.50;99.90;;;;;;5034836;28;20289;-90
2023/08/14 06:58:22;;;;;;;4.32;3.80;;;20.60;99.90;;;;;;5035062;28;20339;-90
2023/08/14 07:00:48;;;;;;;3.65;3.35;;;20.70;99.90;;;;;;5035152;28;20626;-90
2023/08/14 07:03:14;;;;;;;3.92;3.53;;;20.80;99.90;;;;;;5035043;28;20187;-90
2023/08/14 07:05:40;;;;;;;7.20;3.80;;;21.00;99.90;;;;;;5035220;28;20195;-90
2023/08/14 07:08:05;;;;;;;6.03;3.70;;;21.10;99.90;;;;;;5035030;28;20228;-89
2023/08/14 07:10:31;;;;;;;4.88;3.97;;;21.20;99.90;;;;;;5034912;28;20185;-90
2023/08/14 07:12:57;;;;;;;4.32;3.92;;;21.30;99.90;;;;;;5034730;28;20229;-90
2023/08/14 07:15:22;;;;;;;4.45;3.72;;;21.40;99.90;;;;;;5035053;28;20656;-90
2023/08/14 07:17:48;;;;;;;5.78;3.50;;;21.50;99.90;;;;;;5035129;28;20556;-89
2023/08/14 07:20:13;;;;;;;5.10;3.83;;;21.70;99.90;;;;;;5034695;28;20175;-90
2023/08/14 07:22:39;;;;;;;5.10;4.18;;;21.80;99.90;;;;;;5035574;28;20179;-90
2023/08/14 07:25:05;;;;;;;4.63;4.18;;;21.60;99.90;;;;;;5034800;28;20182;-90
2023/08/14 07:27:31;;;;;;;7.43;4.38;;;21.50;99.90;;;;;;5035474;28;20203;-90
2023/08/14 07:29:57;;;;;;;5.78;4.22;;;21.60;99.90;;;;;;5035141;28;20179;-90
2023/08/14 07:32:22;;;;;;;6.05;4.13;;;21.70;99.90;;;;;;5035352;28;20187;-90
2023/08/14 07:34:48;;;;;;;8.50;4.60;;;21.90;99.90;;;;;;5034834;28;20187;-89
2023/08/14 07:37:14;;;;;;;4.93;4.43;;;22.20;99.90;;;;;;5035031;28;20217;-89
2023/08/14 07:39:40;;;;;;;6.90;4.70;;;22.40;99.90;;;;;;5035500;28;20207;-90
2023/08/14 07:42:06;;;;;;;6.78;4.28;;;22.60;99.90;;;;;;5035221;28;20167;-90
2023/08/14 07:44:32;;;;;;;6.00;4.10;;;22.90;99.90;;;;;;5035344;28;20190;-90
2023/08/14 07:46:58;;;;;;;4.65;4.15;;;23.10;99.90;;;;;;5035064;28;20199;-90
2023/08/14 07:49:24;;;;;;;8.80;4.47;;;23.30;99.90;;;;;;5035478;28;20209;-90
2023/08/14 07:51:49;;;;;;;5.03;4.50;;;23.40;99.90;;;;;;5036393;28;20202;-90
2023/08/14 07:54:18;;;;;;;4.68;4.15;;;23.50;99.90;;;;;;5034530;28;20185;-90
2023/08/14 07:56:44;;;;;;;6.60;4.22;;;23.60;99.90;;;;;;5033226;28;20195;-90
2023/08/14 07:59:10;;;;;;;5.28;4.10;;;23.70;99.90;;;;;;5034468;28;20190;-90
2023/08/14 08:01:35;;;;;;;6.82;4.60;;;23.80;99.90;;;;;;5034093;28;20225;-90
2023/08/14 08:04:01;;;;;;;5.03;4.07;;;23.90;99.90;;;;;;5034334;28;20183;-90
2023/08/14 08:06:27;;;;;;;6.10;4.40;;;23.90;99.90;;;;;;5033887;28;20191;-90
2023/08/14 08:08:52;;;;;;;4.70;4.30;;;23.90;99.90;;;;;;5034923;28;20182;-90
2023/08/14 08:11:18;;;;;;;5.85;4.32;;;24.00;99.90;;;;;;5034019;28;20186;-90
2023/08/14 08:13:44;;;;;;;5.07;4.53;;;24.10;99.90;;;;;;5034021;28;20277;-90
2023/08/14 08:16:09;;;;;;;6.28;4.80;;;24.20;99.90;;;;;;5033753;28;20294;-90
2023/08/14 08:18:36;;;;;;;5.10;4.75;;;24.30;99.90;;;;;;5034483;28;20203;-90
2023/08/14 08:21:01;;;;;;;6.30;4.70;;;24.40;99.90;;;;;;5033978;28;20174;-90
2023/08/14 08:23:27;;;;;;;10.07;5.10;;;24.50;99.90;;;;;;5034354;28;20186;-90
2023/08/14 08:25:53;;;;;;;5.10;4.60;;;24.50;99.90;;;;;;5033991;28;20289;-90
2023/08/14 08:28:19;;;;;;;5.38;4.88;;;24.60;99.90;;;;;;5033645;28;20549;-90
2023/08/14 08:30:45;;;;;;;6.22;4.88;;;24.70;99.90;;;;;;5033735;28;20262;-90
2023/08/14 08:33:10;;;;;;;9.20;5.30;;;24.90;99.90;;;;;;5034376;28;20171;-90
2023/08/14 08:35:36;;;;;;;7.43;5.10;;;24.90;99.90;;;;;;5034332;28;20202;-91
2023/08/14 08:38:07;;;;;;;6.18;4.25;;;25.10;99.90;;;;;;5033328;28;20248;-91
2023/08/14 08:40:34;;;;;;;5.53;5.03;;;25.10;99.90;;;;;;5034965;28;20163;-88
2023/08/14 08:43:02;;;;;;;7.75;5.28;;;24.80;99.90;;;;;;5034220;28;20178;-88
2023/08/14 08:45:34;;;;;;;5.93;5.35;;;24.50;99.90;;;;;;5034190;28;20202;-88
2023/08/14 08:48:02;;;;;;;7.38;5.07;;;24.40;99.90;;;;;;5033796;28;20199;-88
2023/08/14 08:50:34;;;;;;;5.72;5.07;;;24.20;99.90;;;;;;5033253;28;20179;-88
2023/08/14 08:53:00;;;;;;;5.82;5.22;;;24.20;99.90;;;;;;5034383;28;20514;-88
2023/08/14 08:56:05;;;;;;;7.13;5.40;;;24.30;99.90;;;;;;5033894;28;20175;-88
2023/08/14 08:58:31;;;;;;;9.48;5.72;;;24.40;99.90;;;;;;5033540;28;20191;-88
2023/08/14 09:00:59;;;;;;;5.47;4.97;;;24.70;99.90;;;;;;5033638;28;20175;-88
2023/08/14 09:03:28;;;;;;;7.95;5.57;;;25.20;99.90;;;;;;5034013;28;20163;-89
2023/08/14 09:05:54;;;;;;;6.70;5.60;;;25.50;99.90;;;;;;5032873;28;20191;-88
2023/08/14 09:08:20;;;;;;;5.32;4.82;;;25.90;99.90;;;;;;5033655;28;20187;-89
2023/08/14 09:10:45;;;;;;;7.65;5.57;;;26.20;99.90;;;;;;5034338;28;20206;-89
2023/08/14 09:13:13;;;;;;;6.10;5.47;;;26.70;99.90;;;;;;5033423;28;20175;-89
2023/08/14 09:15:47;;;;;;;6.05;5.10;;;26.90;99.90;;;;;;5032627;28;20199;-89
2023/08/14 09:18:12;;;;;;;6.13;5.30;;;27.30;99.90;;;;;;5032781;28;20229;-89
2023/08/14 09:20:39;;;;;;;7.63;4.63;;;27.40;99.90;;;;;;5032873;28;20182;-89
2023/08/14 09:23:11;;;;;;;5.55;4.63;;;27.40;99.90;;;;;;5033572;28;20201;-89
2023/08/14 09:25:36;;;;;;;5.30;4.80;;;27.40;99.90;;;;;;5032617;28;20603;-89
2023/08/14 09:28:08;;;;;;;5.38;4.85;;;27.30;99.90;;;;;;5039622;28;20185;-89
2023/08/14 09:30:41;;;;;;;6.85;5.13;;;27.20;99.90;;;;;;5053820;28;20174;-89
2023/08/14 09:33:12;;;;;;;8.23;5.07;;;27.00;99.90;;;;;;5052483;28;20171;-89
2023/08/14 09:35:52;;;;;;;5.95;5.30;;;26.70;99.90;;;;;;5054043;28;20205;-89
2023/08/14 09:41:47;;;;;;;6.10;4.72;;;26.70;99.90;;;;;;5054483;28;20161;-89
2023/08/14 09:44:34;;;;;;;4.93;4.53;;;27.00;99.90;;;;;;5053298;28;20197;-89
2023/08/14 09:47:13;;;;;;;6.28;4.90;;;27.30;99.90;;;;;;5053227;28;20255;-90
2023/08/14 09:49:41;;;;;;;5.18;4.78;;;27.40;99.90;;;;;;5052108;28;20660;-89
2023/08/14 09:52:12;;;;;;;8.55;5.50;;;27.70;99.90;;;;;;5052555;28;20703;-90
2023/08/14 09:55:00;;;;;;;6.30;4.53;;;28.00;99.90;;;;;;5053712;28;20617;-89
2023/08/14 09:57:35;;;;;;;4.90;4.50;;;28.30;99.90;;;;;;5051968;28;20213;-89
2023/08/14 10:00:01;;;;;;;5.00;4.50;;;28.60;99.90;;;;;;5053490;28;20169;-89
2023/08/14 10:02:28;;;;;;;6.20;5.00;;;28.80;99.90;;;;;;5058312;28;20177;-89
2023/08/14 10:05:00;;;;;;;7.10;4.78;;;29.00;99.90;;;;;;5052559;28;20177;-90
2023/08/14 10:07:28;;;;;;;5.63;4.90;;;29.20;99.90;;;;;;5032544;28;20672;-90
2023/08/14 10:10:31;;;;;;;6.50;5.20;;;29.40;99.90;;;;;;5033554;28;20174;-90
2023/08/14 10:13:09;;;;;;;4.85;4.28;;;29.40;99.90;;;;;;5032899;28;20185;-89
2023/08/14 10:15:43;;;;;;;7.18;4.88;;;29.30;99.90;;;;;;5032751;28;20194;-89
2023/08/14 10:18:22;;;;;;;5.40;4.85;;;29.40;99.90;;;;;;5037827;28;20186;-91
2023/08/14 10:20:51;;;;;;;5.05;4.60;;;29.30;99.90;;;;;;5050454;28;20196;-91
2023/08/14 10:23:18;;;;;;;6.07;4.57;;;29.30;99.90;;;;;;5041115;28;20163;-91
2023/08/14 10:25:50;;;;;;;5.80;4.60;;;29.20;99.90;;;;;;5046160;28;20197;-91
2023/08/14 10:28:18;;;;;;;7.30;4.47;;;29.10;99.90;;;;;;5056948;28;20207;-91
2023/08/14 10:30:46;;;;;;;6.70;4.60;;;29.10;99.90;;;;;;5057405;28;20174;-91
2023/08/14 10:33:14;;;;;;;8.55;4.70;;;29.20;99.90;;;;;;5044673;28;20626;-92
2023/08/14 10:35:50;;;;;;;5.93;4.80;;;29.20;99.90;;;;;;5047620;28;20220;-91
2023/08/14 10:38:19;;;;;;;4.90;4.50;;;29.40;99.90;;;;;;5048129;28;20200;-91
2023/08/14 10:41:04;;;;;;;6.72;4.55;;;29.50;99.90;;;;;;5044670;28;20182;-91
2023/08/14 10:43:30;;;;;;;4.88;4.45;;;29.40;99.90;;;;;;5045744;28;20184;-91
2023/08/14 10:45:56;;;;;;;4.60;4.20;;;29.40;99.90;;;;;;5046902;28;20657;-91
2023/08/14 10:51:48;;;;;;;5.50;4.38;;;29.50;99.90;;;;;;5057603;28;20180;-90
2023/08/14 10:54:17;;;;;;;7.05;4.45;;;29.30;99.90;;;;;;5056205;28;20173;-92
2023/08/14 10:56:45;;;;;;;5.43;4.90;;;29.10;99.90;;;;;;5056813;28;20205;-92
2023/08/14 10:59:26;;;;;;;7.97;4.80;;;29.20;99.90;;;;;;5058186;28;20254;-92
2023/08/14 11:02:13;;;;;;;5.57;4.68;;;29.30;99.90;;;;;;5055778;28;20189;-92
2023/08/14 11:05:07;;;;;;;4.78;4.05;;;29.20;99.90;;;;;;5055201;28;20180;-92
2023/08/14 11:07:34;;;;;;;7.50;4.32;;;29.10;99.90;;;;;;5055525;28;20193;-92
2023/08/14 11:10:04;;;;;;;5.47;4.43;;;28.90;99.90;;;;;;5055482;28;20227;-90
2023/08/14 11:12:32;;;;;;;5.85;4.53;;;28.80;99.90;;;;;;5055099;28;20197;-90
2023/08/14 11:14:57;;;;;;;6.53;4.40;;;28.60;99.90;;;;;;5055449;28;20192;-90
2023/08/14 11:17:27;;;;;;;8.05;4.45;;;28.60;99.90;;;;;;5054955;28;20205;-89
2023/08/14 11:19:52;;;;;;;6.30;4.40;;;28.50;99.90;;;;;;5055870;28;20582;-90
2023/08/14 11:22:22;;;;;;;4.97;4.47;;;28.50;99.90;;;;;;5056160;28;20173;-90
2023/08/14 11:24:47;;;;;;;5.65;4.03;;;28.50;99.90;;;;;;5061201;28;20173;-89
2023/08/14 11:27:13;;;;;;;4.63;4.22;;;28.50;99.90;;;;;;5052584;28;20198;-89
2023/08/14 11:29:39;;;;;;;4.57;4.15;;;28.50;99.90;;;;;;5053187;28;20172;-89
2023/08/14 11:32:08;;;;;;;4.57;4.13;;;28.50;99.90;;;;;;5053301;28;20193;-90
2023/08/14 11:34:37;;;;;;;5.10;4.20;;;28.50;99.90;;;;;;5054297;28;20188;-89
2023/08/14 11:37:07;;;;;;;5.70;4.25;;;28.60;99.90;;;;;;5053285;28;20309;-90
2023/08/14 11:39:36;;;;;;;4.93;4.22;;;28.70;99.90;;;;;;5055594;28;20181;-90
2023/08/14 11:42:03;;;;;;;5.82;4.25;;;28.70;99.90;;;;;;5054056;28;20200;-90
2023/08/14 11:44:33;;;;;;;7.55;4.40;;;28.70;99.90;;;;;;5054388;28;20174;-90
2023/08/14 11:46:59;;;;;;;4.80;4.40;;;28.70;99.90;;;;;;5054652;28;20660;-90
2023/08/14 11:49:25;;;;;;;4.75;4.20;;;28.90;99.90;;;;;;5054161;28;20247;-90
2023/08/14 11:52:42;;;;;;;5.18;4.00;;;28.90;99.90;;;;;;5055525;28;20189;-89
2023/08/14 14:18:43;;;;;;;5.13;2.92;;;29.60;93.00;;;;;;4960310;29;20221;-80
2023/08/14 14:21:09;;;;;;;6.35;2.70;;;29.50;92.90;;;;;;4959782;29;20177;-81
2023/08/14 14:23:34;;;;;;;5.05;2.95;;;29.40;92.20;;;;;;4942300;29;20181;-81
2023/08/14 14:26:00;;;;;;;2.97;2.67;;;29.50;92.80;;;;;;4943627;29;20619;-81
2023/08/14 14:28:26;;;;;;;2.90;2.70;;;29.50;92.30;;;;;;4941837;29;20185;-82
2023/08/14 14:30:51;;;;;;;2.95;2.50;;;29.60;91.90;;;;;;4943181;29;20173;-80
2023/08/14 14:33:17;;;;;;;7.82;2.65;;;29.70;90.50;;;;;;4945204;29;20687;-80
2023/08/14 14:35:49;;;;;;;2.67;2.47;;;29.70;90.70;;;;;;4946162;28;20195;-81
2023/08/14 14:38:14;;;;;;;2.78;2.47;;;29.70;91.40;;;;;;4946750;29;20225;-80
2023/08/14 14:40:49;;;;;;;3.33;2.38;;;29.70;91.90;;;;;;4943538;29;20185;-80
2023/08/14 14:43:14;;;;;;;4.88;2.75;;;29.80;89.20;;;;;;4943946;29;20258;-80
2023/08/14 14:45:40;;;;;;;2.58;2.30;;;29.80;86.80;;;;;;4942953;28;20177;-81
2023/08/14 14:48:06;;;;;;;5.15;2.35;;;29.80;88.40;;;;;;4942671;29;20232;-80
2023/08/14 14:50:31;;;;;;;4.00;2.50;;;29.90;89.80;;;;;;4943602;29;20181;-80
2023/08/14 14:52:57;;;;;;;2.92;2.63;;;29.90;90.10;;;;;;4943119;29;20196;-80
2023/08/14 14:55:33;;;;;;;2.97;2.35;;;30.00;88.50;;;;;;4942566;29;20177;-80
2023/08/14 14:57:59;;;;;;;2.75;2.55;;;29.90;88.40;;;;;;4942507;29;20204;-80
2023/08/14 15:00:27;;;;;;;3.33;2.65;;;29.80;88.30;;;;;;4943575;29;20532;-81
2023/08/14 15:02:53;;;;;;;3.83;2.58;;;29.60;88.60;;;;;;4959927;29;20177;-80
2023/08/14 15:05:19;;;;;;;5.85;2.58;;;29.50;90.40;;;;;;4942448;29;20172;-80
2023/08/14 15:07:46;;;;;;;2.60;2.35;;;29.50;90.90;;;;;;4942518;29;20287;-81
2023/08/14 15:10:12;;;;;;;6.70;2.50;;;29.50;90.40;;;;;;4959141;29;20181;-81
2023/08/14 15:12:37;;;;;;;2.58;2.38;;;29.50;90.70;;;;;;4942182;29;20188;-81
2023/08/14 15:15:08;;;;;;;4.72;2.60;;;29.50;90.70;;;;;;4942227;29;20181;-81
2023/08/14 15:17:40;;;;;;;6.20;2.80;;;29.50;90.90;;;;;;4942657;29;20305;-81
2023/08/14 15:20:15;;;;;;;3.65;2.80;;;29.40;90.40;;;;;;4942718;29;20177;-81
2023/08/14 15:22:43;;;;;;;4.18;2.60;;;29.30;90.00;;;;;;4943103;29;20177;-81
2023/08/14 15:25:11;;;;;;;3.97;3.00;;;29.30;90.30;;;;;;4943926;29;20173;-80
2023/08/14 15:27:37;;;;;;;3.30;2.72;;;29.30;90.10;;;;;;4943134;29;20224;-81
2023/08/14 15:30:03;;;;;;;5.88;2.53;;;29.30;90.40;;;;;;4961443;29;20181;-81
2023/08/14 15:32:32;;;;;;;5.95;2.50;;;29.30;87.70;;;;;;4943017;29;20185;-81
2023/08/14 15:34:58;;;;;;;2.55;2.35;;;29.30;90.10;;;;;;4943985;29;20185;-82
2023/08/14 15:37:27;;;;;;;2.65;2.45;;;29.30;89.50;;;;;;4942680;29;20213;-83
2023/08/14 15:39:54;;;;;;;4.07;2.63;;;29.20;88.30;;;;;;4944411;29;20176;-82
2023/08/14 15:42:20;;;;;;;4.75;2.47;;;29.20;89.20;;;;;;4966006;29;20177;-83
2023/08/14 15:44:46;;;;;;;2.88;2.40;;;29.10;89.60;;;;;;4949905;29;20249;-83
2023/08/14 15:47:12;;;;;;;3.78;2.53;;;29.10;90.10;;;;;;4948628;29;20672;-83
2023/08/14 15:49:37;;;;;;;2.90;2.40;;;29.00;90.40;;;;;;4949413;29;20185;-83
2023/08/14 15:52:03;;;;;;;3.28;2.60;;;28.90;90.80;;;;;;4949536;29;20173;-83
2023/08/14 15:54:28;;;;;;;5.07;2.83;;;28.90;91.10;;;;;;4949087;29;20552;-83
2023/08/14 15:56:54;;;;;;;3.17;2.72;;;28.70;91.20;;;;;;4951720;29;20203;-82
2023/08/14 15:59:20;;;;;;;4.38;2.83;;;28.60;91.80;;;;;;4954203;29;20209;-82
2023/08/14 16:01:46;;;;;;;4.20;2.67;;;28.60;92.10;;;;;;4953339;29;20175;-82
2023/08/14 16:04:12;;;;;;;3.90;2.80;;;28.50;92.50;;;;;;4954193;29;20534;-82
2023/08/14 16:06:37;;;;;;;4.68;3.08;;;28.40;93.10;;;;;;4954045;29;20671;-82
2023/08/14 16:09:03;;;;;;;5.65;2.88;;;28.30;93.60;;;;;;4954191;29;20188;-82
2023/08/14 16:11:30;;;;;;;7.07;3.05;;;28.30;94.00;;;;;;4953058;29;20663;-82
2023/08/14 16:13:56;;;;;;;5.40;2.90;;;28.30;93.90;;;;;;4952572;29;20181;-82
2023/08/14 16:16:21;;;;;;;2.80;2.60;;;28.40;93.20;;;;;;4951993;29;20208;-82
2023/08/14 16:18:47;;;;;;;3.17;2.90;;;28.50;93.00;;;;;;4952058;29;20267;-82
2023/08/14 16:21:12;;;;;;;4.63;2.67;;;28.60;93.10;;;;;;4951538;29;20181;-82
2023/08/14 16:23:38;;;;;;;4.25;3.03;;;28.50;94.00;;;;;;4951310;29;20183;-82
2023/08/14 16:26:03;;;;;;;6.93;3.40;;;28.50;94.10;;;;;;4951390;28;20639;-82
2023/08/14 16:28:29;;;;;;;4.57;2.97;;;28.40;93.70;;;;;;4950410;29;20181;-82
2023/08/14 16:30:54;;;;;;;4.85;3.03;;;28.30;93.90;;;;;;4951136;29;20185;-82
2023/08/14 16:33:20;;;;;;;3.35;2.92;;;28.10;94.60;;;;;;4951616;29;20199;-82
2023/08/14 16:35:46;;;;;;;3.72;2.88;;;28.10;94.40;;;;;;4951693;28;20207;-82
2023/08/14 16:38:11;;;;;;;7.22;3.08;;;28.10;94.60;;;;;;4951350;29;20204;-82
2023/08/14 16:40:45;;;;;;;5.40;2.80;;;28.10;94.90;;;;;;4950988;29;20185;-82
2023/08/14 16:43:11;;;;;;;4.80;2.70;;;28.00;95.30;;;;;;4950225;29;20177;-82
2023/08/14 16:45:45;;;;;;;7.00;3.03;;;28.10;95.10;;;;;;4949606;28;20581;-82
2023/08/14 16:48:11;;;;;;;5.05;2.75;;;28.10;95.50;;;;;;4946685;29;20176;-82
2023/08/14 16:50:38;;;;;;;5.85;3.22;;;27.90;95.90;;;;;;4946799;29;20185;-82
2023/08/14 16:53:04;;;;;;;6.95;3.60;;;27.90;96.00;;;;;;4963578;29;20181;-82
2023/08/14 16:55:36;;;;;;;6.57;3.00;;;27.80;96.20;;;;;;4955091;28;20192;-83
2023/08/14 16:58:08;;;;;;;6.32;3.20;;;27.70;96.20;;;;;;4961750;28;20218;-83
2023/08/14 17:00:34;;;;;;;6.97;2.97;;;27.60;96.50;;;;;;4961613;28;20196;-83
2023/08/14 17:03:04;;;;;;;6.43;3.30;;;27.50;96.60;;;;;;4960724;28;20165;-83
2023/08/14 17:05:31;;;;;;;6.63;3.35;;;27.40;96.50;;;;;;4961410;28;20228;-82
2023/08/14 17:07:57;;;;;;;8.88;3.05;;;27.30;96.70;;;;;;4961541;29;20220;-82
2023/08/14 17:10:22;;;;;;;5.22;3.00;;;27.10;96.90;;;;;;4964505;29;20181;-82
2023/08/14 17:12:48;;;;;;;8.93;3.28;;;27.00;97.10;;;;;;4966397;28;20217;-82
2023/08/14 17:15:15;;;;;;;3.88;3.15;;;26.90;97.10;;;;;;4966429;28;20261;-82
2023/08/14 17:17:46;;;;;;;5.22;2.92;;;26.80;97.10;;;;;;4965098;28;20367;-82
2023/08/14 17:20:12;;;;;;;3.75;2.78;;;26.70;97.50;;;;;;4965567;28;20169;-82
2023/08/14 17:22:38;;;;;;;6.70;2.97;;;26.70;98.00;;;;;;4960549;29;20183;-81
2023/08/14 17:25:13;;;;;;;4.22;3.28;;;26.60;98.50;;;;;;4958603;28;20260;-81
2023/08/14 17:27:39;;;;;;;7.38;3.30;;;26.50;98.30;;;;;;4958615;28;20205;-81
2023/08/14 17:30:16;;;;;;;6.00;3.20;;;26.50;98.20;;;;;;4957249;28;20663;-81
2023/08/14 17:32:44;;;;;;;7.65;3.15;;;26.50;98.40;;;;;;4958039;28;20177;-80
2023/08/14 17:35:10;;;;;;;5.00;2.88;;;26.40;98.70;;;;;;4959764;28;20176;-81
2023/08/14 17:37:36;;;;;;;6.60;3.28;;;26.40;99.00;;;;;;4959383;28;20217;-81
2023/08/14 17:40:01;;;;;;;5.97;3.15;;;26.40;99.20;;;;;;4958720;28;20182;-81
2023/08/14 17:42:28;;;;;;;9.05;3.60;;;26.40;99.30;;;;;;4959699;28;20185;-81
2023/08/14 17:44:54;;;;;;;8.27;3.20;;;26.30;99.90;;;;;;4958800;28;20188;-81
2023/08/14 17:47:28;;;;;;;7.80;3.00;;;26.30;99.90;;;;;;4958445;28;20197;-81
2023/08/14 17:50:00;;;;;;;6.30;3.20;;;26.20;99.90;;;;;;4957724;29;20215;-80
2023/08/14 17:52:27;;;;;;;9.10;3.50;;;26.20;99.90;;;;;;4956233;28;20170;-80
2023/08/14 17:55:38;;;;;;;9.40;3.15;;;26.10;99.90;;;;;;4955245;28;20182;-81
2023/08/14 17:58:03;;;;;;;4.88;3.33;;;26.10;99.90;;;;;;4955306;29;20289;-80
2023/08/14 18:00:31;;;;;;;6.72;3.30;;;26.00;99.90;;;;;;4954818;28;20189;-79
2023/08/14 18:03:00;;;;;;;3.78;2.97;;;25.90;99.90;;;;;;4944502;28;20169;-80
2023/08/14 18:05:55;;;;;;;4.22;3.20;;;25.90;99.90;;;;;;4939009;28;20182;-80
2023/08/14 18:08:39;;;;;;;9.05;3.40;;;25.90;99.90;;;;;;4938902;29;20173;-80
2023/08/14 18:11:35;;;;;;;5.93;3.80;;;25.80;99.90;;;;;;4939039;29;20240;-80
2023/08/14 18:14:00;;;;;;;12.43;4.03;;;25.80;99.90;;;;;;4957310;29;20179;-80
2023/08/14 18:16:26;;;;;;;6.78;3.80;;;25.70;99.90;;;;;;4939283;29;20210;-80
2023/08/14 18:18:53;;;;;;;4.40;3.33;;;25.70;99.90;;;;;;4939614;29;20223;-80
2023/08/14 18:21:19;;;;;;;7.25;3.53;;;25.70;99.90;;;;;;4956963;29;20150;-80
2023/08/14 18:23:44;;;;;;;6.43;3.45;;;25.70;99.90;;;;;;4940313;29;20617;-80
2023/08/14 18:26:10;;;;;;;4.05;3.40;;;25.70;99.90;;;;;;4940379;29;20197;-80
2023/08/14 18:28:36;;;;;;;9.15;3.70;;;25.70;99.90;;;;;;4940294;29;20177;-80
2023/08/14 18:31:03;;;;;;;4.25;3.60;;;25.60;99.90;;;;;;4940267;29;20169;-80
2023/08/14 18:33:28;;;;;;;5.47;3.75;;;25.60;99.90;;;;;;4940140;29;20177;-80
2023/08/14 18:35:54;;;;;;;4.95;3.70;;;25.60;99.90;;;;;;4939827;29;20209;-80
2023/08/14 18:38:20;;;;;;;7.20;3.70;;;25.50;99.90;;;;;;4939528;29;20256;-80
2023/08/14 18:40:45;;;;;;;10.27;3.78;;;25.50;99.90;;;;;;4939928;29;20269;-80
2023/08/14 18:43:12;;;;;;;6.03;3.72;;;25.40;99.90;;;;;;4939773;29;20256;-80
2023/08/14 18:45:37;;;;;;;13.13;4.30;;;25.30;99.90;;;;;;4940589;28;20554;-80
2023/08/14 18:48:03;;;;;;;11.60;4.10;;;25.30;99.90;;;;;;4957173;29;20194;-80
2023/08/14 18:50:31;;;;;;;7.60;4.07;;;25.10;99.90;;;;;;4941798;29;20180;-80
2023/08/14 18:52:57;;;;;;;6.55;4.03;;;25.10;99.90;;;;;;4943514;29;20181;-80
2023/08/14 18:55:23;;;;;;;6.38;3.90;;;24.90;99.90;;;;;;4943527;29;20181;-80
2023/08/14 18:57:48;;;;;;;5.20;4.38;;;24.90;99.90;;;;;;4960598;28;20718;-80
2023/08/14 19:00:15;;;;;;;8.40;4.20;;;24.70;99.90;;;;;;4943480;29;20180;-79
2023/08/14 19:02:40;;;;;;;7.97;4.57;;;24.60;99.90;;;;;;4959891;29;20172;-79
2023/08/14 19:05:08;;;;;;;9.68;4.63;;;24.60;99.90;;;;;;4944220;29;20550;-79
2023/08/14 19:07:38;;;;;;;10.77;4.68;;;24.50;99.90;;;;;;4960632;28;20213;-80
2023/08/14 19:10:05;;;;;;;8.32;4.93;;;24.40;99.90;;;;;;4943317;29;20186;-80
2023/08/14 19:12:30;;;;;;;8.15;4.70;;;24.30;99.90;;;;;;4943886;29;20174;-80
2023/08/14 19:14:56;;;;;;;11.82;5.05;;;24.40;99.90;;;;;;4942730;29;20190;-80
2023/08/14 19:17:22;;;;;;;9.30;4.55;;;24.40;99.90;;;;;;4943902;29;20221;-80
2023/08/14 19:19:49;;;;;;;8.95;4.35;;;24.40;99.90;;;;;;4943057;29;20220;-79
2023/08/14 19:22:16;;;;;;;15.27;4.50;;;24.40;99.90;;;;;;4944384;29;20228;-80
2023/08/14 19:24:42;;;;;;;12.68;4.50;;;24.30;99.90;;;;;;4942870;29;20173;-80
2023/08/14 19:27:07;;;;;;;6.00;4.40;;;24.30;99.90;;;;;;4943900;29;20198;-80
2023/08/14 19:29:34;;;;;;;8.77;4.53;;;24.20;99.90;;;;;;4944416;29;20166;-80
2023/08/14 19:32:00;;;;;;;11.43;4.55;;;24.10;99.90;;;;;;4960899;29;20248;-80
2023/08/14 19:34:26;;;;;;;11.10;4.40;;;24.10;99.90;;;;;;4943686;29;20166;-80
2023/08/14 19:36:51;;;;;;;8.65;4.50;;;24.00;99.90;;;;;;4960555;28;20200;-80